Flight Track Log - Related Links

Times and Time Zones

All times are in EDT time to prevent confusion due to time zone crossing. See the GJS3649 flight status page for this flight to view local times or setup timezone preferences in your user account.

Time Position Orientation Groundspeed Altitude Reporting Facility
EDT Latitude Longitude Course Direction KTS MPH feet Rate Location/Type
Mon 10:44:47 PM 41.9500 -87.8667 180° South 225 259 2,700  Level Chicago TRACON
Mon 10:45:31 PM 41.9006 -87.8583 173° South 244 281 4,000 2,571 Climbing Chicago Center
Mon 10:46:32 PM 41.8172 -87.8081 156° South 269 310 7,200 3,000 Climbing Chicago Center
Mon 10:47:33 PM 41.7447 -87.7647 156° South 284 327 10,100 2,656 Climbing Chicago Center
Mon 10:48:34 PM 41.6700 -87.7197 156° South 293 337 12,600 2,361 Climbing Chicago Center
Mon 10:49:35 PM 41.5919 -87.6725 156° South 305 351 14,900 1,967 Climbing Chicago Center
Mon 10:50:00 PM 41.5754 -87.2093 180° South  Level Estimated
Mon 10:50:36 PM 41.5108 -87.6231 155° Southeast 316 364 16,600  Level Chicago Center
Mon 10:51:38 PM 41.4178 -87.5719 158° South 353 406 17,800 1,512 Climbing Chicago Center
Mon 10:52:39 PM 41.3125 -87.5528 172° South 378 435 19,700 1,770 Climbing Chicago Center
Mon 10:53:40 PM 41.2056 -87.5344 173° South 384 442 21,400 1,475 Climbing Chicago Center
Mon 10:54:41 PM 41.0961 -87.5058 169° South 395 455 22,700 1,180 Climbing Chicago Center
Mon 10:55:42 PM 40.9847 -87.4750 168° South 406 467 23,800 1,033 Climbing Chicago Center
Mon 10:56:43 PM 40.8706 -87.4442 168° South 415 478 24,800 1,082 Climbing Chicago Center
Mon 10:57:44 PM 40.7281 -87.4083 169° South 433 498 26,000 1,073 Climbing Chicago Center
Mon 10:58:46 PM 40.6106 -87.3767 168° South 433 498 27,000 976 Climbing Chicago Center
Mon 10:59:47 PM 40.4903 -87.3458 169° South 438 504 28,000 984 Climbing Chicago Center
Mon 11:00:48 PM 40.3742 -87.2997 163° South 445 512 29,000 1,180 Climbing Chicago Center
Mon 11:01:49 PM 40.2594 -87.2461 160° South 441 507 30,400 1,180 Climbing Chicago Center
Mon 11:02:50 PM 40.1492 -87.1908 159° South 429 494 31,400 887 Climbing Chicago Center
Mon 11:03:44 PM 40.0339 -87.1400 161° South 434 499 32,100 783 Climbing Indianapolis Center
Mon 11:04:45 PM 39.9258 -87.0656 152° Southeast 445 512 32,900 836 Climbing Indianapolis Center
Mon 11:05:46 PM 39.8231 -86.9786 147° Southeast 445 512 33,800 885 Climbing Indianapolis Center
Mon 11:06:47 PM 39.7211 -86.8933 147° Southeast 440 506 34,700 885 Climbing Indianapolis Center
Mon 11:07:48 PM 39.6186 -86.8078 147° Southeast 442 509 35,600 836 Climbing Indianapolis Center
Mon 11:08:49 PM 39.5183 -86.7250 148° Southeast 436 502 36,400 738 Climbing Indianapolis Center
Mon 11:09:50 PM 39.4189 -86.6422 147° Southeast 431 496 37,100 738 Climbing Indianapolis Center
Mon 11:10:51 PM 39.3008 -86.5442 147° Southeast 427 491 37,900 689 Climbing Indianapolis Center
Mon 11:11:52 PM 39.2028 -86.4636 148° Southeast 422 486 38,500 541 Climbing Indianapolis Center
Mon 11:12:53 PM 39.1053 -86.3836 148° Southeast 421 484 39,000 246 Climbing Indianapolis Center
Mon 11:13:54 PM 39.0089 -86.3047 148° Southeast 414 476 39,000  Level Indianapolis Center
Mon 11:14:55 PM 38.9106 -86.2250 148° Southeast 419 482 39,000  Level Indianapolis Center
Mon 11:15:56 PM 38.8181 -86.1497 148° Southeast 422 486 39,000  Level Indianapolis Center
Mon 11:16:57 PM 38.7186 -86.0686 148° Southeast 420 483 39,000  Level Indianapolis Center
Mon 11:17:58 PM 38.6194 -85.9889 148° Southeast 417 480 39,000 -197 Level Indianapolis Center
Mon 11:18:59 PM 38.5083 -85.8717 140° Southeast 439 505 38,600 -689 Descending Indianapolis Center
Mon 11:20:00 PM 38.4639 -85.7189 110° East 464 534 37,600 -787 Descending Indianapolis Center
Mon 11:21:01 PM 38.4339 -85.5561 103° East 471 542 37,000 -295 Descending Indianapolis Center
Mon 11:22:02 PM 38.4078 -85.3942 102° East 468 539 37,000  Level Indianapolis Center
Mon 11:23:03 PM 38.3794 -85.2331 103° East 464 534 37,000  Level Indianapolis Center
Mon 11:24:04 PM 38.3508 -85.0675 102° East 463 533 37,000  Level Indianapolis Center
Mon 11:25:05 PM 38.3206 -84.9083 104° East 462 532 37,000  Level Indianapolis Center
Mon 11:26:06 PM 38.2925 -84.7492 103° East 461 531 37,000  Level Indianapolis Center
Mon 11:27:07 PM 38.2633 -84.5881 103° East 466 536 37,000  Level Indianapolis Center
Mon 11:28:08 PM 38.2350 -84.4269 103° East 468 539 37,000  Level Indianapolis Center
Mon 11:29:09 PM 38.2039 -84.2667 104° East 467 537 37,000  Level Indianapolis Center
Mon 11:30:10 PM 38.1744 -84.1081 103° East 462 532 37,000  Level Indianapolis Center
Mon 11:31:11 PM 38.1450 -83.9483 103° East 463 533 37,000  Level Indianapolis Center
Mon 11:32:12 PM 38.1147 -83.7886 103° East 463 533 37,000  Level Indianapolis Center
Mon 11:33:13 PM 38.0844 -83.6311 104° East 459 528 37,000  Level Indianapolis Center
Mon 11:34:14 PM 38.0539 -83.4733 104° East 460 529 37,000  Level Indianapolis Center
Mon 11:35:15 PM 38.0231 -83.3175 104° East 456 525 37,000  Level Indianapolis Center
Mon 11:36:16 PM 37.9925 -83.1575 104° East 461 531 37,000  Level Indianapolis Center
Mon 11:37:17 PM 37.9561 -82.9725 104° East 461 531 37,000  Level Indianapolis Center
Mon 11:38:18 PM 37.9258 -82.8153 104° East 459 528 37,000  Level Indianapolis Center
Mon 11:39:19 PM 37.8944 -82.6597 104° East 455 524 37,000  Level Indianapolis Center
Mon 11:40:20 PM 37.8625 -82.5028 104° East 457 526 37,000  Level Indianapolis Center
Mon 11:41:21 PM 37.8294 -82.3439 105° East 467 537 37,000  Level Indianapolis Center
Mon 11:42:22 PM 37.7975 -82.1858 104° East 463 533 37,000  Level Indianapolis Center
Mon 11:43:23 PM 37.7664 -82.0333 104° East 452 520 37,000  Level Indianapolis Center
Mon 11:44:23 PM 37.7350 -81.8756 104° East 459 528 37,000  Level Indianapolis Center
Mon 11:45:24 PM 37.7011 -81.7175 105° East 464 534 37,000  Level Indianapolis Center
Mon 11:46:25 PM 37.6683 -81.5606 105° East 462 532 37,000  Level Indianapolis Center
Mon 11:47:26 PM 37.6356 -81.4061 105° East 461 531 37,000  Level Indianapolis Center
Mon 11:48:27 PM 37.6019 -81.2519 105° East 467 537 37,000  Level Indianapolis Center
Mon 11:49:28 PM 37.5617 -81.0681 105° East 467 537 37,000  Level Indianapolis Center
Mon 11:50:29 PM 37.5283 -80.9136 105° East 469 540 37,000 -49 Level Indianapolis Center
Mon 11:51:30 PM 37.4950 -80.7611 105° East 467 537 36,900 -836 Descending Indianapolis Center
Mon 11:52:31 PM 37.4611 -80.6128 106° East 463 533 35,300 -1,574 Descending Washington Center
Mon 11:53:32 PM 37.4256 -80.4642 107° East 458 527 33,700 -1,900 Descending Washington Center
Mon 11:54:31 PM 37.3494 -80.3311 126° Southeast 432 497 31,500 -2,118 Descending Washington Center
Mon 11:55:31 PM 37.2767 -80.2222 130° Southeast 421 484 29,500 -1,950 Descending Washington Center
Mon 11:56:31 PM 37.2017 -80.1108 130° Southeast 415 478 27,600 -1,934 Descending Washington Center
Mon 11:57:32 PM 37.1244 -79.9969 130° Southeast 415 478 25,600 -1,934 Descending Washington Center
Mon 11:58:32 PM 37.0553 -79.8939 130° Southeast 424 488 23,700 -1,835 Descending Washington Center
Mon 11:59:33 PM 36.9778 -79.7803 130° Southeast 424 488 21,900 -1,800 Descending Washington Center
Tue 12:00:32 AM 36.8986 -79.6619 130° Southeast 419 482 20,100 -1,627 Descending Washington Center
Tue 12:01:31 AM 36.8289 -79.5622 131° Southeast 403 464 18,700 -1,400 Descending Washington Center
Tue 12:02:32 AM 36.7611 -79.4653 131° Southeast 386 444 17,300 -1,377 Descending Washington Center
Tue 12:03:33 AM 36.6994 -79.3689 129° Southeast 367 422 15,900 -1,438 Descending Washington Center
Tue 12:04:33 AM 36.6436 -79.2911 132° Southeast 358 412 14,400 -1,525 Descending Washington Center
Tue 12:05:31 AM 36.5836 -79.2003 129° Southeast 346 398 12,900 -1,563 Descending Washington Center
Tue 12:06:32 AM 36.5214 -79.1175 133° Southeast 304 350 11,300 -1,450 Descending Washington Center
Tue 12:07:31 AM 36.4675 -79.0375 130° Southeast 304 350 10,000 -645 Descending Washington Center
Tue 12:08:33 AM 36.4153 -78.9603 130° Southeast 294 338 10,000 -393 Level Washington Center
Tue 12:09:33 AM 36.3586 -78.9011 140° Southeast 281 323 9,200 -712 Descending Washington Center
Tue 12:10:31 AM 36.3056 -78.8550 145° Southeast 262 302 8,600 -610 Descending Washington Center
Tue 12:11:31 AM 36.2486 -78.8036 144° Southeast 239 275 8,000 -706 Descending Washington Center
Tue 12:12:30 AM 36.2019 -78.7581 142° Southeast 229 264 7,200 -1,050 Descending Washington Center
Tue 12:13:31 AM 36.1589 -78.7203 145° Southeast 217 250 5,900 -1,268 Descending Washington Center
Tue 12:14:33 AM 36.1081 -78.6719 142° Southeast 217 250 4,600 -1,261 Descending Washington Center
Tue 12:15:30 AM 36.0650 -78.6394 149° Southeast 206 237 3,400 -1,134 Descending Washington Center
Tue 12:16:40 AM 36.0086 -78.6503 189° South 167 192 2,200 -554 Descending Washington Center
Tue 12:17:40 AM 35.9722 -78.6794 213° Southwest 161 185 2,200 -142 Level Washington Center
Tue 12:18:47 AM 35.9464 -78.7119 226° Southwest 115 132 1,900 -422 Descending Washington Center
Tue 12:19:48 AM 35.9225 -78.7444 228° Southwest 118 136 1,300 -689 Descending Washington Center
Tue 12:20:49 AM 35.8944 -78.7792 225° Southwest 137 158 500 -787 Descending Washington Center
Tue 12:22:00 AM 35.8776 -78.7875 112° Southeast  Level Estimated
Tue 12:29:00 AM 35.8776 -78.7875 90° East  Level Estimated

Login

Don't have an account? Register now (free) for customized features, flight alerts, and more!